sensor_id;sensor_type;location;lat;lon;timestamp;pressure;altitude;pressure_sealevel;temperature;humidity
51271;BME280;37744;50.960;4.136;2022-09-09T00:03:58;100293.19;;;14.28;100.00
51271;BME280;37744;50.960;4.136;2022-09-09T00:06:31;100289.03;;;14.24;100.00
51271;BME280;37744;50.960;4.136;2022-09-09T00:09:14;100289.38;;;14.18;100.00
51271;BME280;37744;50.960;4.136;2022-09-09T00:12:10;100287.84;;;14.13;100.00
51271;BME280;37744;50.960;4.136;2022-09-09T00:14:59;100285.78;;;14.19;100.00
51271;BME280;37744;50.960;4.136;2022-09-09T00:17:41;100288.63;;;14.15;100.00
51271;BME280;37744;50.960;4.136;2022-09-09T00:20:28;100282.56;;;14.13;100.00
51271;BME280;37744;50.960;4.136;2022-09-09T00:25:39;100281.06;;;14.09;100.00
51271;BME280;37744;50.960;4.136;2022-09-09T00:28:22;100273.91;;;14.11;100.00
51271;BME280;37744;50.960;4.136;2022-09-09T00:30:48;100277.47;;;14.10;100.00
51271;BME280;37744;50.960;4.136;2022-09-09T00:33:17;100273.91;;;14.11;100.00
51271;BME280;37744;50.960;4.136;2022-09-09T00:36:00;100275.59;;;14.12;100.00
51271;BME280;37744;50.960;4.136;2022-09-09T00:38:33;100275.41;;;14.15;100.00
51271;BME280;37744;50.960;4.136;2022-09-09T00:43:58;100267.06;;;14.07;100.00
51271;BME280;37744;50.960;4.136;2022-09-09T00:49:15;100258.72;;;14.15;100.00
51271;BME280;37744;50.960;4.136;2022-09-09T00:57:12;100260.78;;;14.10;100.00
51271;BME280;37744;50.960;4.136;2022-09-09T00:59:47;100259.66;;;14.14;100.00
51271;BME280;37744;50.960;4.136;2022-09-09T01:02:21;100251.81;;;14.12;100.00
51271;BME280;37744;50.960;4.136;2022-09-09T01:04:50;100256.16;;;14.13;100.00
51271;BME280;37744;50.960;4.136;2022-09-09T01:07:18;100251.63;;;14.15;100.00
51271;BME280;37744;50.960;4.136;2022-09-09T01:09:58;100246.94;;;14.21;100.00
51271;BME280;37744;50.960;4.136;2022-09-09T01:12:41;100244.47;;;14.18;100.00
51271;BME280;37744;50.960;4.136;2022-09-09T01:15:27;100233.75;;;14.21;100.00
51271;BME280;37744;50.960;4.136;2022-09-09T01:20:31;100224.09;;;14.20;100.00
51271;BME280;37744;50.960;4.136;2022-09-09T01:26:03;100213.53;;;14.20;100.00
51271;BME280;37744;50.960;4.136;2022-09-09T01:28:31;100214.38;;;14.20;100.00
51271;BME280;37744;50.960;4.136;2022-09-09T01:31:00;100207.41;;;14.19;100.00
51271;BME280;37744;50.960;4.136;2022-09-09T01:33:27;100209.19;;;14.19;100.00
51271;BME280;37744;50.960;4.136;2022-09-09T01:38:26;100203.34;;;14.13;100.00
51271;BME280;37744;50.960;4.136;2022-09-09T01:40:53;100207.75;;;14.13;100.00
51271;BME280;37744;50.960;4.136;2022-09-09T01:43:22;100210.41;;;14.13;100.00
51271;BME280;37744;50.960;4.136;2022-09-09T01:45:51;100205.03;;;14.14;100.00
51271;BME280;37744;50.960;4.136;2022-09-09T01:48:19;100195.41;;;14.13;100.00
51271;BME280;37744;50.960;4.136;2022-09-09T01:50:46;100203.34;;;14.13;100.00
51271;BME280;37744;50.960;4.136;2022-09-09T01:53:12;100195.34;;;14.15;100.00
51271;BME280;37744;50.960;4.136;2022-09-09T01:55:41;100194.47;;;14.14;100.00
51271;BME280;37744;50.960;4.136;2022-09-09T01:58:31;100196.53;;;14.09;100.00
51271;BME280;37744;50.960;4.136;2022-09-09T02:04:03;100197.75;;;14.04;100.00
51271;BME280;37744;50.960;4.136;2022-09-09T02:06:39;100197.50;;;14.08;100.00
51271;BME280;37744;50.960;4.136;2022-09-09T02:09:07;100191.25;;;14.09;100.00
51271;BME280;37744;50.960;4.136;2022-09-09T02:11:35;100201.63;;;14.12;100.00
51271;BME280;37744;50.960;4.136;2022-09-09T02:14:23;100199.94;;;14.11;100.00
51271;BME280;37744;50.960;4.136;2022-09-09T02:16:55;100197.66;;;14.05;100.00
51271;BME280;37744;50.960;4.136;2022-09-09T02:19:28;100189.91;;;14.02;100.00
51271;BME280;37744;50.960;4.136;2022-09-09T02:21:56;100195.19;;;14.02;100.00
51271;BME280;37744;50.960;4.136;2022-09-09T02:24:23;100204.63;;;14.06;100.00
51271;BME280;37744;50.960;4.136;2022-09-09T02:26:52;100200.97;;;14.09;100.00
51271;BME280;37744;50.960;4.136;2022-09-09T02:29:22;100201.81;;;14.09;100.00
51271;BME280;37744;50.960;4.136;2022-09-09T02:31:50;100201.81;;;14.09;100.00
51271;BME280;37744;50.960;4.136;2022-09-09T02:34:18;100197.31;;;14.11;100.00
51271;BME280;37744;50.960;4.136;2022-09-09T02:36:45;100200.13;;;14.08;100.00
51271;BME280;37744;50.960;4.136;2022-09-09T02:39:12;100206.91;;;14.12;100.00
51271;BME280;37744;50.960;4.136;2022-09-09T02:41:40;100204.34;;;14.11;100.00
51271;BME280;37744;50.960;4.136;2022-09-09T02:44:13;100195.59;;;14.10;100.00
51271;BME280;37744;50.960;4.136;2022-09-09T02:47:50;100189.38;;;14.11;100.00
51271;BME280;37744;50.960;4.136;2022-09-09T02:50:03;100203.53;;;14.10;100.00
51271;BME280;37744;50.960;4.136;2022-09-09T02:52:42;100199.56;;;14.18;100.00
51271;BME280;37744;50.960;4.136;2022-09-09T02:55:29;100206.84;;;14.14;100.00
51271;BME280;37744;50.960;4.136;2022-09-09T02:57:59;100201.63;;;14.12;100.00
51271;BME280;37744;50.960;4.136;2022-09-09T03:00:26;100205.41;;;14.08;100.00
51271;BME280;37744;50.960;4.136;2022-09-09T03:02:53;100203.53;;;14.10;100.00
51271;BME280;37744;50.960;4.136;2022-09-09T03:05:20;100201.63;;;14.12;100.00
51271;BME280;37744;50.960;4.136;2022-09-09T03:07:45;100189.94;;;14.17;100.00
51271;BME280;37744;50.960;4.136;2022-09-09T03:10:11;100189.00;;;14.18;100.00
51271;BME280;37744;50.960;4.136;2022-09-09T03:12:36;100193.44;;;14.17;100.00
51271;BME280;37744;50.960;4.136;2022-09-09T03:15:02;100190.88;;;14.15;100.00
51271;BME280;37744;50.960;4.136;2022-09-09T03:17:27;100189.75;;;14.20;100.00
51271;BME280;37744;50.960;4.136;2022-09-09T03:19:53;100184.94;;;14.12;100.00
51271;BME280;37744;50.960;4.136;2022-09-09T03:22:19;100181.34;;;14.13;100.00
51271;BME280;37744;50.960;4.136;2022-09-09T03:24:46;100185.41;;;14.19;100.00
51271;BME280;37744;50.960;4.136;2022-09-09T03:27:12;100192.38;;;14.20;100.00
51271;BME280;37744;50.960;4.136;2022-09-09T03:29:39;100178.06;;;14.09;100.00
51271;BME280;37744;50.960;4.136;2022-09-09T03:32:05;100189.38;;;14.11;100.00
51271;BME280;37744;50.960;4.136;2022-09-09T03:34:30;100181.19;;;14.16;100.00
51271;BME280;37744;50.960;4.136;2022-09-09T03:36:56;100173.34;;;14.14;100.00
51271;BME280;37744;50.960;4.136;2022-09-09T03:39:22;100174.47;;;14.10;100.00
51271;BME280;37744;50.960;4.136;2022-09-09T03:41:47;100176.91;;;14.13;100.00
51271;BME280;37744;50.960;4.136;2022-09-09T03:44:13;100172.50;;;14.14;100.00
51271;BME280;37744;50.960;4.136;2022-09-09T03:46:39;100172.50;;;14.14;100.00
51271;BME280;37744;50.960;4.136;2022-09-09T03:49:04;100169.06;;;14.12;100.00
51271;BME280;37744;50.960;4.136;2022-09-09T03:51:30;100169.75;;;14.15;100.00
51271;BME280;37744;50.960;4.136;2022-09-09T03:53:55;100169.75;;;14.15;100.00
51271;BME280;37744;50.960;4.136;2022-09-09T03:56:23;100167.50;;;14.24;100.00
51271;BME280;37744;50.960;4.136;2022-09-09T03:58:48;100164.13;;;14.22;100.00
51271;BME280;37744;50.960;4.136;2022-09-09T04:01:14;100157.28;;;14.18;100.00
51271;BME280;37744;50.960;4.136;2022-09-09T04:03:40;100152.00;;;14.18;100.00
51271;BME280;37744;50.960;4.136;2022-09-09T04:06:07;100145.69;;;14.20;100.00
51271;BME280;37744;50.960;4.136;2022-09-09T04:08:33;100147.47;;;14.20;100.00
51271;BME280;37744;50.960;4.136;2022-09-09T04:11:01;100143.34;;;14.15;100.00
51271;BME280;37744;50.960;4.136;2022-09-09T04:13:32;100133.44;;;14.19;100.00
51271;BME280;37744;50.960;4.136;2022-09-09T04:15:59;100129.00;;;14.20;100.00
51271;BME280;37744;50.960;4.136;2022-09-09T04:18:26;100131.63;;;14.20;100.00
51271;BME280;37744;50.960;4.136;2022-09-09T04:20:52;100128.91;;;14.21;100.00
51271;BME280;37744;50.960;4.136;2022-09-09T04:23:19;100131.63;;;14.20;100.00
51271;BME280;37744;50.960;4.136;2022-09-09T04:25:49;100119.75;;;14.27;100.00
51271;BME280;37744;50.960;4.136;2022-09-09T04:28:16;100126.75;;;14.28;100.00
51271;BME280;37744;50.960;4.136;2022-09-09T04:30:42;100130.25;;;14.28;100.00
51271;BME280;37744;50.960;4.136;2022-09-09T04:33:08;100144.47;;;14.26;100.00
51271;BME280;37744;50.960;4.136;2022-09-09T04:35:35;100135.81;;;14.24;100.00
51271;BME280;37744;50.960;4.136;2022-09-09T04:38:00;100134.78;;;14.26;100.00
51271;BME280;37744;50.960;4.136;2022-09-09T04:40:28;100133.91;;;14.26;100.00
51271;BME280;37744;50.960;4.136;2022-09-09T04:42:54;100123.34;;;14.26;100.00
51271;BME280;37744;50.960;4.136;2022-09-09T04:45:20;100129.31;;;14.29;100.00
51271;BME280;37744;50.960;4.136;2022-09-09T04:47:45;100126.75;;;14.28;100.00
51271;BME280;37744;50.960;4.136;2022-09-09T04:50:11;100130.53;;;14.24;100.00
51271;BME280;37744;50.960;4.136;2022-09-09T04:52:37;100128.34;;;14.31;100.00
51271;BME280;37744;50.960;4.136;2022-09-09T04:55:03;100131.19;;;14.27;100.00
51271;BME280;37744;50.960;4.136;2022-09-09T04:57:28;100141.09;;;14.24;100.00
51271;BME280;37744;50.960;4.136;2022-09-09T04:59:54;100136.56;;;14.26;100.00
51271;BME280;37744;50.960;4.136;2022-09-09T05:02:19;100137.50;;;14.25;100.00
51271;BME280;37744;50.960;4.136;2022-09-09T05:04:45;100140.91;;;14.27;100.00
51271;BME280;37744;50.960;4.136;2022-09-09T05:07:10;100143.47;;;14.28;100.00
51271;BME280;37744;50.960;4.136;2022-09-09T05:09:35;100129.31;;;14.29;100.00
51271;BME280;37744;50.960;4.136;2022-09-09T05:12:01;100137.13;;;14.31;100.00
51271;BME280;37744;50.960;4.136;2022-09-09T05:14:28;100144.00;;;14.34;100.00
51271;BME280;37744;50.960;4.136;2022-09-09T05:16:53;100142.25;;;14.34;100.00
51271;BME280;37744;50.960;4.136;2022-09-09T05:19:18;100139.47;;;14.36;100.00
51271;BME280;37744;50.960;4.136;2022-09-09T05:21:45;100139.31;;;14.39;100.00
51271;BME280;37744;50.960;4.136;2022-09-09T05:24:10;100143.81;;;14.37;100.00
51271;BME280;37744;50.960;4.136;2022-09-09T05:26:36;100127.69;;;14.41;100.00
51271;BME280;37744;50.960;4.136;2022-09-09T05:29:01;100132.97;;;14.41;100.00
51271;BME280;37744;50.960;4.136;2022-09-09T05:31:29;100128.34;;;14.45;100.00
51271;BME280;37744;50.960;4.136;2022-09-09T05:33:55;100130.91;;;14.47;100.00
51271;BME280;37744;50.960;4.136;2022-09-09T05:36:21;100118.44;;;14.49;100.00
51271;BME280;37744;50.960;4.136;2022-09-09T05:38:47;100129.56;;;14.39;100.00
51271;BME280;37744;50.960;4.136;2022-09-09T05:41:14;100121.75;;;14.38;100.00
51271;BME280;37744;50.960;4.136;2022-09-09T05:43:43;100127.22;;;14.35;100.00
51271;BME280;37744;50.960;4.136;2022-09-09T05:46:15;100122.59;;;14.38;100.00
51271;BME280;37744;50.960;4.136;2022-09-09T05:48:42;100124.09;;;14.42;100.00
51271;BME280;37744;50.960;4.136;2022-09-09T05:51:10;100118.81;;;14.42;100.00
51271;BME280;37744;50.960;4.136;2022-09-09T05:53:37;100116.16;;;14.42;100.00
51271;BME280;37744;50.960;4.136;2022-09-09T05:58:33;100131.56;;;14.50;100.00
51271;BME280;37744;50.960;4.136;2022-09-09T06:03:36;100123.38;;;14.55;100.00
51271;BME280;37744;50.960;4.136;2022-09-09T06:06:10;100122.03;;;14.62;100.00
51271;BME280;37744;50.960;4.136;2022-09-09T06:08:38;100127.22;;;14.64;100.00
51271;BME280;37744;50.960;4.136;2022-09-09T06:11:04;100129.00;;;14.63;100.00
51271;BME280;37744;50.960;4.136;2022-09-09T06:13:31;100119.38;;;14.62;100.00
51271;BME280;37744;50.960;4.136;2022-09-09T06:15:57;100119.38;;;14.62;100.00
51271;BME280;37744;50.960;4.136;2022-09-09T06:18:23;100117.69;;;14.61;100.00
51271;BME280;37744;50.960;4.136;2022-09-09T06:21:02;100127.69;;;14.70;100.00
51271;BME280;37744;50.960;4.136;2022-09-09T06:23:30;100127.31;;;14.77;100.00
51271;BME280;37744;50.960;4.136;2022-09-09T06:26:16;100134.50;;;14.75;100.00
51271;BME280;37744;50.960;4.136;2022-09-09T06:28:44;100136.41;;;14.73;100.00
51271;BME280;37744;50.960;4.136;2022-09-09T06:31:11;100112.59;;;14.73;100.00
51271;BME280;37744;50.960;4.136;2022-09-09T06:33:39;100131.38;;;14.82;100.00
51271;BME280;37744;50.960;4.136;2022-09-09T06:36:07;100125.91;;;14.85;100.00
51271;BME280;37744;50.960;4.136;2022-09-09T06:38:35;100130.13;;;14.88;100.00
51271;BME280;37744;50.960;4.136;2022-09-09T06:41:00;100122.84;;;14.92;100.00
51271;BME280;37744;50.960;4.136;2022-09-09T06:43:26;100124.25;;;14.97;100.00
51271;BME280;37744;50.960;4.136;2022-09-09T06:45:56;100125.97;;;14.98;100.00
51271;BME280;37744;50.960;4.136;2022-09-09T06:48:22;100118.97;;;14.97;100.00
51271;BME280;37744;50.960;4.136;2022-09-09T06:50:47;100118.78;;;15.01;100.00
51271;BME280;37744;50.960;4.136;2022-09-09T06:53:16;100114.34;;;15.01;100.00
51271;BME280;37744;50.960;4.136;2022-09-09T06:55:44;100118.88;;;14.99;100.00
51271;BME280;37744;50.960;4.136;2022-09-09T06:58:10;100119.34;;;15.06;100.00
51271;BME280;37744;50.960;4.136;2022-09-09T07:00:35;100111.94;;;15.11;100.00
51271;BME280;37744;50.960;4.136;2022-09-09T07:03:03;100112.06;;;15.09;100.00
51271;BME280;37744;50.960;4.136;2022-09-09T07:05:28;100120.53;;;15.15;100.00
51271;BME280;37744;50.960;4.136;2022-09-09T07:07:53;100119.69;;;15.14;100.00
51271;BME280;37744;50.960;4.136;2022-09-09T07:10:19;100114.13;;;15.19;100.00
51271;BME280;37744;50.960;4.136;2022-09-09T07:12:44;100110.41;;;15.21;100.00
51271;BME280;37744;50.960;4.136;2022-09-09T07:15:10;100106.63;;;15.25;100.00
51271;BME280;37744;50.960;4.136;2022-09-09T07:17:35;100116.56;;;15.35;100.00
51271;BME280;37744;50.960;4.136;2022-09-09T07:20:01;100106.19;;;15.32;100.00
51271;BME280;37744;50.960;4.136;2022-09-09T07:22:28;100107.91;;;15.33;100.00
51271;BME280;37744;50.960;4.136;2022-09-09T07:24:54;100106.00;;;15.35;100.00
51271;BME280;37744;50.960;4.136;2022-09-09T07:27:19;100107.81;;;15.34;100.00
51271;BME280;37744;50.960;4.136;2022-09-09T07:29:45;100090.53;;;15.29;100.00
51271;BME280;37744;50.960;4.136;2022-09-09T07:32:10;100103.13;;;15.25;100.00
51271;BME280;37744;50.960;4.136;2022-09-09T07:34:36;100096.22;;;15.22;100.00
51271;BME280;37744;50.960;4.136;2022-09-09T07:37:02;100104.50;;;15.31;100.00
51271;BME280;37744;50.960;4.136;2022-09-09T07:39:27;100110.00;;;15.27;100.00
51271;BME280;37744;50.960;4.136;2022-09-09T07:41:52;100112.53;;;15.29;100.00
51271;BME280;37744;50.960;4.136;2022-09-09T07:44:22;100115.91;;;15.18;100.00
51271;BME280;37744;50.960;4.136;2022-09-09T07:46:48;100104.72;;;15.27;100.00
51271;BME280;37744;50.960;4.136;2022-09-09T07:49:14;100109.06;;;15.29;100.00
51271;BME280;37744;50.960;4.136;2022-09-09T07:51:42;100113.00;;;15.36;100.00
51271;BME280;37744;50.960;4.136;2022-09-09T07:54:10;100109.59;;;15.34;100.00
51271;BME280;37744;50.960;4.136;2022-09-09T07:56:37;100107.81;;;15.34;100.00
51271;BME280;37744;50.960;4.136;2022-09-09T07:59:02;100101.78;;;15.32;100.00
51271;BME280;37744;50.960;4.136;2022-09-09T08:01:42;100098.72;;;15.38;100.00
51271;BME280;37744;50.960;4.136;2022-09-09T08:04:10;100101.06;;;15.43;100.00
51271;BME280;37744;50.960;4.136;2022-09-09T08:06:41;100103.09;;;15.52;100.00
51271;BME280;37744;50.960;4.136;2022-09-09T08:09:08;100104.19;;;15.63;100.00
51271;BME280;37744;50.960;4.136;2022-09-09T08:11:34;100096.97;;;15.65;100.00
51271;BME280;37744;50.960;4.136;2022-09-09T08:14:01;100109.59;;;15.74;100.00
51271;BME280;37744;50.960;4.136;2022-09-09T08:16:29;100103.13;;;15.65;100.00
51271;BME280;37744;50.960;4.136;2022-09-09T08:18:55;100117.75;;;15.71;100.00
51271;BME280;37744;50.960;4.136;2022-09-09T08:21:27;100106.22;;;15.72;100.00
51271;BME280;37744;50.960;4.136;2022-09-09T08:23:55;100111.81;;;15.67;100.00
51271;BME280;37744;50.960;4.136;2022-09-09T08:26:22;100114.56;;;15.66;100.00
51271;BME280;37744;50.960;4.136;2022-09-09T08:28:50;100118.16;;;15.65;100.00
51271;BME280;37744;50.960;4.136;2022-09-09T08:31:21;100130.56;;;15.64;100.00
51271;BME280;37744;50.960;4.136;2022-09-09T08:33:47;100117.72;;;15.58;100.00
51271;BME280;37744;50.960;4.136;2022-09-09T08:36:18;100130.09;;;15.58;100.00
51271;BME280;37744;50.960;4.136;2022-09-09T08:38:47;100133.16;;;15.51;100.00
51271;BME280;37744;50.960;4.136;2022-09-09T08:52:29;100147.22;;;15.39;100.00
51271;BME280;37744;50.960;4.136;2022-09-09T08:55:09;100143.41;;;15.43;100.00
51271;BME280;37744;50.960;4.136;2022-09-09T08:57:38;100142.00;;;15.37;100.00
51271;BME280;37744;50.960;4.136;2022-09-09T09:00:04;100152.50;;;15.39;100.00
51271;BME280;37744;50.960;4.136;2022-09-09T09:03:07;100153.03;;;15.44;100.00
51271;BME280;37744;50.960;4.136;2022-09-09T09:05:45;100150.38;;;15.44;100.00
51271;BME280;37744;50.960;4.136;2022-09-09T09:13:13;100143.97;;;15.48;100.00
51271;BME280;37744;50.960;4.136;2022-09-09T09:15:41;100149.06;;;15.51;100.00
51271;BME280;37744;50.960;4.136;2022-09-09T09:18:11;100163.25;;;15.63;100.00
51271;BME280;37744;50.960;4.136;2022-09-09T09:23:25;100165.81;;;15.65;100.00
51271;BME280;37744;50.960;4.136;2022-09-09T09:26:00;100164.13;;;15.64;100.00
51271;BME280;37744;50.960;4.136;2022-09-09T09:28:30;100162.22;;;15.66;100.00
51271;BME280;37744;50.960;4.136;2022-09-09T09:31:00;100159.78;;;15.63;100.00
51271;BME280;37744;50.960;4.136;2022-09-09T09:33:35;100160.72;;;15.62;100.00
51271;BME280;37744;50.960;4.136;2022-09-09T09:36:05;100164.78;;;15.67;100.00
51271;BME280;37744;50.960;4.136;2022-09-09T09:38:33;100174.31;;;15.70;100.00
51271;BME280;37744;50.960;4.136;2022-09-09T09:40:59;100170.28;;;15.77;100.00
51271;BME280;37744;50.960;4.136;2022-09-09T09:43:28;100182.59;;;15.78;100.00
51271;BME280;37744;50.960;4.136;2022-09-09T09:45:54;100177.09;;;15.81;100.00
51271;BME280;37744;50.960;4.136;2022-09-09T09:48:20;100175.94;;;15.86;100.00
51271;BME280;37744;50.960;4.136;2022-09-09T09:50:56;100184.94;;;15.83;100.00
51271;BME280;37744;50.960;4.136;2022-09-09T09:53:28;100187.38;;;15.86;100.00
51271;BME280;37744;50.960;4.136;2022-09-09T09:56:27;100177.72;;;15.85;100.00
51271;BME280;37744;50.960;4.136;2022-09-09T09:58:56;100178.00;;;15.95;100.00
51271;BME280;37744;50.960;4.136;2022-09-09T10:01:32;100182.78;;;16.03;100.00
51271;BME280;37744;50.960;4.136;2022-09-09T10:04:18;100180.13;;;16.16;100.00
51271;BME280;37744;50.960;4.136;2022-09-09T10:06:45;100190.53;;;16.32;100.00
51271;BME280;37744;50.960;4.136;2022-09-09T10:15:14;100201.78;;;16.61;100.00
51271;BME280;37744;50.960;4.136;2022-09-09T10:20:43;100193.50;;;16.66;100.00
51271;BME280;37744;50.960;4.136;2022-09-09T10:57:31;100216.84;;;16.87;100.00
51271;BME280;37744;50.960;4.136;2022-09-09T11:00:06;100221.72;;;16.93;100.00
51271;BME280;37744;50.960;4.136;2022-09-09T11:02:33;100224.59;;;17.03;100.00
51271;BME280;37744;50.960;4.136;2022-09-09T11:05:30;100220.34;;;17.00;100.00
51271;BME280;37744;50.960;4.136;2022-09-09T11:08:17;100226.78;;;17.22;99.39
51271;BME280;37744;50.960;4.136;2022-09-09T11:13:56;100223.13;;;17.36;99.59
51271;BME280;37744;50.960;4.136;2022-09-09T11:16:39;100237.38;;;17.35;97.45
51271;BME280;37744;50.960;4.136;2022-09-09T11:21:43;100235.34;;;17.63;98.73
51271;BME280;37744;50.960;4.136;2022-09-09T11:24:19;100234.22;;;17.78;99.75
51271;BME280;37744;50.960;4.136;2022-09-09T11:32:25;100243.22;;;17.64;98.94
51271;BME280;37744;50.960;4.136;2022-09-09T11:40:17;100252.38;;;17.60;97.48
51271;BME280;37744;50.960;4.136;2022-09-09T11:42:45;100244.94;;;17.53;98.01
51271;BME280;37744;50.960;4.136;2022-09-09T11:45:25;100237.09;;;17.51;99.98
51271;BME280;37744;50.960;4.136;2022-09-09T11:48:02;100250.06;;;17.56;98.55
51271;BME280;37744;50.960;4.136;2022-09-09T11:50:36;100243.03;;;17.55;98.62
51271;BME280;37744;50.960;4.136;2022-09-09T11:53:18;100243.53;;;17.60;97.68
51271;BME280;37744;50.960;4.136;2022-09-09T11:56:02;100245.94;;;17.76;97.39
51271;BME280;37744;50.960;4.136;2022-09-09T11:58:36;100243.31;;;17.87;97.30
51271;BME280;37744;50.960;4.136;2022-09-09T12:01:24;100237.25;;;18.10;96.83
51271;BME280;37744;50.960;4.136;2022-09-09T12:03:57;100245.75;;;18.15;97.26
51271;BME280;37744;50.960;4.136;2022-09-09T12:06:30;100240.44;;;18.15;94.85
51271;BME280;37744;50.960;4.136;2022-09-09T12:09:11;100243.22;;;18.00;94.55
51271;BME280;37744;50.960;4.136;2022-09-09T12:11:42;100259.38;;;18.10;95.28
51271;BME280;37744;50.960;4.136;2022-09-09T12:14:19;100249.59;;;18.11;96.56
51271;BME280;37744;50.960;4.136;2022-09-09T12:16:46;100247.66;;;18.48;96.34
51271;BME280;37744;50.960;4.136;2022-09-09T12:21:48;100249.72;;;18.79;91.49
51271;BME280;37744;50.960;4.136;2022-09-09T12:24:37;100250.47;;;18.93;92.14
51271;BME280;37744;50.960;4.136;2022-09-09T12:32:26;100246.59;;;18.62;91.74
51271;BME280;37744;50.960;4.136;2022-09-09T12:35:03;100253.22;;;18.57;93.11
51271;BME280;37744;50.960;4.136;2022-09-09T12:37:36;100245.72;;;18.62;93.32
51271;BME280;37744;50.960;4.136;2022-09-09T12:40:21;100245.72;;;18.51;93.41
51271;BME280;37744;50.960;4.136;2022-09-09T12:42:47;100256.25;;;18.63;94.01
51271;BME280;37744;50.960;4.136;2022-09-09T12:45:23;100246.34;;;18.77;93.02
51271;BME280;37744;50.960;4.136;2022-09-09T12:50:22;100248.13;;;19.56;93.54
51271;BME280;37744;50.960;4.136;2022-09-09T12:52:55;100238.97;;;19.38;92.13
51271;BME280;37744;50.960;4.136;2022-09-09T12:55:24;100247.25;;;19.00;92.30
51271;BME280;37744;50.960;4.136;2022-09-09T12:57:52;100243.94;;;18.97;92.69
51271;BME280;37744;50.960;4.136;2022-09-09T13:00:23;100250.72;;;18.78;91.75
51271;BME280;37744;50.960;4.136;2022-09-09T13:02:52;100244.66;;;18.99;91.75
51271;BME280;37744;50.960;4.136;2022-09-09T13:05:26;100246.38;;;19.11;90.92
51271;BME280;37744;50.960;4.136;2022-09-09T13:08:03;100251.72;;;19.11;90.49
51271;BME280;37744;50.960;4.136;2022-09-09T13:10:33;100239.03;;;19.59;89.47
51271;BME280;37744;50.960;4.136;2022-09-09T13:13:01;100242.09;;;19.43;87.87
51271;BME280;37744;50.960;4.136;2022-09-09T13:15:29;100246.88;;;19.16;90.00
51271;BME280;37744;50.960;4.136;2022-09-09T13:17:57;100252.22;;;19.16;90.75
51271;BME280;37744;50.960;4.136;2022-09-09T13:20:26;100241.31;;;19.08;88.99
51271;BME280;37744;50.960;4.136;2022-09-09T13:22:53;100243.38;;;19.04;89.51
51271;BME280;37744;50.960;4.136;2022-09-09T13:25:27;100244.66;;;18.87;90.35
51271;BME280;37744;50.960;4.136;2022-09-09T13:28:02;100235.75;;;19.00;90.30
51271;BME280;37744;50.960;4.136;2022-09-09T13:30:33;100240.81;;;19.14;89.98
51271;BME280;37744;50.960;4.136;2022-09-09T13:35:47;100253.59;;;19.55;88.17
51271;BME280;37744;50.960;4.136;2022-09-09T13:38:15;100240.09;;;19.68;87.92
51271;BME280;37744;50.960;4.136;2022-09-09T13:40:52;100247.19;;;19.46;87.98
51271;BME280;37744;50.960;4.136;2022-09-09T13:43:21;100249.28;;;19.31;89.06
51271;BME280;37744;50.960;4.136;2022-09-09T13:46:00;100253.66;;;19.21;87.47
51271;BME280;37744;50.960;4.136;2022-09-09T13:48:26;100253.00;;;18.94;86.96
51271;BME280;37744;50.960;4.136;2022-09-09T13:51:02;100271.53;;;18.96;87.18
51271;BME280;37744;50.960;4.136;2022-09-09T13:53:30;100266.97;;;19.09;85.76
51271;BME280;37744;50.960;4.136;2022-09-09T13:55:56;100268.75;;;19.20;86.31
51271;BME280;37744;50.960;4.136;2022-09-09T13:58:22;100268.19;;;19.16;85.15
51271;BME280;37744;50.960;4.136;2022-09-09T14:00:48;100265.25;;;19.20;85.18
51271;BME280;37744;50.960;4.136;2022-09-09T14:03:15;100267.06;;;19.30;84.94
51271;BME280;37744;50.960;4.136;2022-09-09T14:05:40;100260.19;;;19.28;85.65
51271;BME280;37744;50.960;4.136;2022-09-09T14:08:07;100264.75;;;19.37;85.45
51271;BME280;37744;50.960;4.136;2022-09-09T14:10:34;100264.19;;;19.11;86.15
51271;BME280;37744;50.960;4.136;2022-09-09T14:13:03;100255.09;;;19.13;87.75
51271;BME280;37744;50.960;4.136;2022-09-09T14:15:28;100259.22;;;19.06;87.94
51271;BME280;37744;50.960;4.136;2022-09-09T14:17:54;100258.94;;;18.86;87.90
51271;BME280;37744;50.960;4.136;2022-09-09T14:20:19;100257.03;;;19.00;88.54
51271;BME280;37744;50.960;4.136;2022-09-09T14:22:45;100254.34;;;19.34;86.27
51271;BME280;37744;50.960;4.136;2022-09-09T14:25:11;100254.19;;;20.02;86.37
51271;BME280;37744;50.960;4.136;2022-09-09T14:27:38;100249.28;;;19.75;83.72
51271;BME280;37744;50.960;4.136;2022-09-09T14:30:05;100241.84;;;19.57;85.10
51271;BME280;37744;50.960;4.136;2022-09-09T14:32:31;100243.56;;;19.80;85.19
51271;BME280;37744;50.960;4.136;2022-09-09T14:34:56;100245.53;;;19.78;83.70
51271;BME280;37744;50.960;4.136;2022-09-09T14:37:22;100244.50;;;20.01;84.42
51271;BME280;37744;50.960;4.136;2022-09-09T14:39:47;100251.97;;;20.50;78.95
51271;BME280;37744;50.960;4.136;2022-09-09T14:42:15;100259.16;;;20.50;81.44
51271;BME280;37744;50.960;4.136;2022-09-09T14:44:41;100254.53;;;20.30;79.13
51271;BME280;37744;50.960;4.136;2022-09-09T14:47:07;100251.03;;;20.30;81.02
51271;BME280;37744;50.960;4.136;2022-09-09T14:49:36;100257.88;;;20.44;78.57
51271;BME280;37744;50.960;4.136;2022-09-09T14:52:03;100261.75;;;20.19;79.25
51271;BME280;37744;50.960;4.136;2022-09-09T14:54:29;100265.63;;;19.82;81.39
51271;BME280;37744;50.960;4.136;2022-09-09T14:56:55;100266.84;;;19.78;81.87
51271;BME280;37744;50.960;4.136;2022-09-09T14:59:22;100272.94;;;19.68;83.49
51271;BME280;37744;50.960;4.136;2022-09-09T15:01:47;100269.00;;;19.40;83.99